This is the latest recevied weather packets stored in our database for station/object XE2RCS-21. If no packets are shown the sender has not sent any weather packets the latest 10 day(s).
| Time | Temp. | Humidity | Pressure | Rain* | Wind** | Luminosity | Snow |
|---|---|---|---|---|---|---|---|
| 1777602628 | 22.78° C | 100% | 1004.7 hPa | - | - | - | - |
| 1777600828 | 23.33° C | 100% | 1005.7 hPa | - | - | - | - |
| 1777599028 | 24.44° C | 100% | 1008.1 hPa | - | - | - | - |
| 1777597228 | 26.11° C | 100% | 1010.5 hPa | - | - | - | - |
| 1777595427 | 27.78° C | 100% | 1012.7 hPa | - | - | - | - |
| 1777593627 | 28.33° C | 100% | 1012.9 hPa | - | - | - | - |
| 1777591827 | 28.89° C | 100% | 1013.7 hPa | - | - | - | - |
| 1777590026 | 31.67° C | 100% | 1014.4 hPa | - | - | - | - |
| 1777588225 | 29.44° C | 100% | 1013.6 hPa | - | - | - | - |
| 1777586424 | 30° C | 100% | 1013.8 hPa | - | - | - | - |
| 1777584627 | 33.89° C | 76% | 1015.4 hPa | - | - | - | - |
| 1777582827 | 32.78° C | 83% | 1015.6 hPa | - | - | - | - |
| 1777581026 | 32.22° C | 82% | 1015.9 hPa | - | - | - | - |
| 1777579226 | 32.78° C | 67% | 1016.6 hPa | - | - | - | - |
| 1777577426 | 33.89° C | 51% | 1017.1 hPa | - | - | - | - |
| 1777575626 | 36.67° C | 41% | 1017.6 hPa | - | - | - | - |
| 1777573826 | 34.44° C | 49% | 1017.9 hPa | - | - | - | - |
| 1777572025 | 38.89° C | 40% | 1018.2 hPa | - | - | - | - |
| 1777570230 | 36.11° C | 51% | 1018.9 hPa | - | - | - | - |
| 1777568425 | 33.89° C | 62% | 1019.1 hPa | - | - | - | - |
| 1777566625 | 31.11° C | 100% | 1016.7 hPa | - | - | - | - |
| 1777564824 | 26.67° C | 100% | 1008.4 hPa | - | - | - | - |
| 1777563027 | 26.11° C | 100% | 1008.1 hPa | - | - | - | - |
| 1777561226 | 24.44° C | 100% | 1007 hPa | - | - | - | - |
| 1777559426 | 23.89° C | 100% | 1007.9 hPa | - | - | - | - |
* Rain since midnight (hover to see other rain measurements)
** Current wind speed in m/s (hover to see current wind gust speed)